createdAt,value
2023-04-26T00:00:45.801Z,98894.53
2023-04-26T00:03:13.886Z,98869.00
2023-04-26T00:05:40.686Z,98843.75
2023-04-26T00:08:07.312Z,98840.88
2023-04-26T00:10:33.823Z,98836.69
2023-04-26T00:13:00.405Z,98814.59
2023-04-26T00:15:27.296Z,98792.78
2023-04-26T00:17:53.843Z,98776.63
2023-04-26T00:20:20.325Z,98761.03
2023-04-26T00:22:46.721Z,98742.25
2023-04-26T00:25:14.102Z,98732.75
2023-04-26T00:27:44.285Z,98720.28
2023-04-26T00:30:11.246Z,98704.41
2023-04-26T00:32:37.894Z,98692.81
2023-04-26T00:35:04.988Z,98679.22
2023-04-26T00:37:31.684Z,98674.91
2023-04-26T00:39:58.313Z,98665.59
2023-04-26T00:42:27.142Z,98646.28
2023-04-26T00:44:57.567Z,98643.31
2023-04-26T00:47:25.167Z,98643.41
2023-04-26T00:49:52.699Z,98619.38
2023-04-26T00:52:19.307Z,98619.28
2023-04-26T00:54:47.625Z,98616.47
2023-04-26T00:57:14.413Z,98614.63
2023-04-26T00:59:41.595Z,98577.88
2023-04-26T01:02:09.738Z,98586.09
2023-04-26T01:04:37.416Z,98570.28
2023-04-26T01:07:04.040Z,98556.81
2023-04-26T01:09:32.029Z,98547.75
2023-04-26T01:11:58.752Z,98539.41
2023-04-26T01:14:25.179Z,98545.13
2023-04-26T01:16:52.526Z,98526.22
2023-04-26T01:19:19.082Z,98528.94
2023-04-26T01:21:46.142Z,98529.84
2023-04-26T01:24:13.870Z,98532.47
2023-04-26T01:26:45.976Z,98535.97
2023-04-26T01:29:16.951Z,98527.94
2023-04-26T01:31:43.836Z,98511.09
2023-04-26T01:34:10.387Z,98520.38
2023-04-26T01:36:37.093Z,98528.72
2023-04-26T01:39:04.055Z,98545.88
2023-04-26T01:41:30.728Z,98513.56
2023-04-26T01:43:57.194Z,98516.19
2023-04-26T01:46:23.798Z,98501.31
2023-04-26T01:48:50.581Z,98483.44
2023-04-26T01:51:17.231Z,98469.06
2023-04-26T01:53:43.910Z,98498.94
2023-04-26T01:56:10.683Z,98500.81
2023-04-26T01:58:37.186Z,98460.03
2023-04-26T02:01:07.780Z,98462.94
2023-04-26T02:03:35.019Z,98445.47
2023-04-26T02:06:01.701Z,98392.03
2023-04-26T02:08:28.156Z,98385.31
2023-04-26T02:10:54.722Z,98367.56
2023-04-26T02:13:21.396Z,98344.41
2023-04-26T02:15:48.410Z,98309.84
2023-04-26T02:18:15.423Z,98255.78
2023-04-26T02:20:45.782Z,98208.78
2023-04-26T02:23:12.686Z,98147.22
2023-04-26T02:25:39.711Z,98085.66
2023-04-26T02:28:09.436Z,98007.28
2023-04-26T02:30:36.817Z,97957.88
2023-04-26T02:33:03.305Z,97867.34
2023-04-26T02:35:29.917Z,97823.44
2023-04-26T02:37:56.488Z,97737.31
2023-04-26T02:40:22.958Z,97653.22
2023-04-26T02:42:49.637Z,97583.50
2023-04-26T02:45:16.319Z,97544.41
2023-04-26T02:47:42.752Z,97498.63
2023-04-26T02:50:09.880Z,97479.22
2023-04-26T02:52:38.440Z,97451.84
2023-04-26T02:55:05.347Z,97414.25
2023-04-26T02:57:32.411Z,97399.16
2023-04-26T02:59:59.050Z,97369.81
2023-04-26T03:02:25.811Z,97357.59
2023-04-26T03:04:52.887Z,97349.84
2023-04-26T03:09:47.311Z,97329.03
2023-04-26T03:12:13.724Z,97306.09
2023-04-26T03:14:40.126Z,97308.00
2023-04-26T03:17:06.485Z,97305.13
2023-04-26T03:19:35.927Z,97313.59
2023-04-26T03:22:02.647Z,97316.31
2023-04-26T03:24:29.131Z,97299.59
2023-04-26T03:26:55.632Z,97303.03
2023-04-26T03:29:22.011Z,97293.41
2023-04-26T03:31:48.591Z,97288.34
2023-04-26T03:34:15.912Z,97296.41
2023-04-26T03:36:42.551Z,97306.53
2023-04-26T03:39:09.788Z,97304.63
2023-04-26T03:41:39.392Z,97430.53
2023-04-26T03:44:06.151Z,97438.47
2023-04-26T03:46:32.680Z,97447.56
2023-04-26T03:49:02.043Z,97458.69
2023-04-26T03:51:28.618Z,97460.38
2023-04-26T03:53:55.663Z,97468.16
2023-04-26T03:56:22.073Z,97459.66
2023-04-26T03:58:48.811Z,97459.38
2023-04-26T04:01:15.736Z,97456.78
2023-04-26T04:03:42.485Z,97453.72
2023-04-26T04:06:09.257Z,97461.59
2023-04-26T04:08:35.839Z,97462.06
2023-04-26T04:11:04.732Z,97427.16
2023-04-26T04:13:31.726Z,97467.03
2023-04-26T04:15:58.474Z,97476.16
2023-04-26T04:18:27.969Z,97488.38
2023-04-26T04:20:54.367Z,97494.53
2023-04-26T04:23:20.765Z,97511.47
2023-04-26T04:25:48.998Z,97511.25
2023-04-26T04:28:15.399Z,97518.00
2023-04-26T04:30:43.691Z,97528.16
2023-04-26T04:33:10.514Z,97527.44
2023-04-26T04:35:36.959Z,97497.63
2023-04-26T04:38:03.500Z,97546.06
2023-04-26T04:40:34.326Z,97548.75
2023-04-26T04:43:03.699Z,97560.16
2023-04-26T04:45:30.471Z,97564.63
2023-04-26T04:47:56.943Z,97563.00
2023-04-26T04:50:23.599Z,97564.16
2023-04-26T04:52:50.052Z,97569.16
2023-04-26T04:55:16.819Z,97574.34
2023-04-26T04:57:43.366Z,97570.31
2023-04-26T05:00:10.817Z,97564.63
2023-04-26T05:02:37.580Z,97567.09
2023-04-26T05:05:05.180Z,97564.97
2023-04-26T05:07:38.930Z,97569.59
2023-04-26T05:10:05.573Z,97568.16
2023-04-26T05:12:32.189Z,97560.78
2023-04-26T05:14:58.660Z,97550.31
2023-04-26T05:17:25.381Z,97544.00
2023-04-26T05:19:51.848Z,97538.84
2023-04-26T05:22:21.118Z,97541.34
2023-04-26T05:24:48.083Z,97538.94
2023-04-26T05:27:14.888Z,97534.13
2023-04-26T05:29:42.086Z,97518.28
2023-04-26T05:32:08.929Z,97498.47
2023-04-26T05:34:38.577Z,97488.09
2023-04-26T05:37:05.023Z,97477.00
2023-04-26T05:39:31.956Z,97441.19
2023-04-26T05:41:58.531Z,97381.06
2023-04-26T05:44:24.967Z,97376.25
2023-04-26T05:46:51.513Z,97367.03
2023-04-26T05:49:18.074Z,97377.50
2023-04-26T05:51:44.463Z,97416.03
2023-04-26T05:54:10.964Z,97512.63
2023-04-26T05:56:37.423Z,97643.44
2023-04-26T05:59:03.891Z,97759.94
2023-04-26T06:01:30.948Z,98104.38
2023-04-26T06:04:00.222Z,98356.41
2023-04-26T06:06:28.289Z,98630.00
2023-04-26T06:08:55.143Z,98798.59
2023-04-26T06:11:21.644Z,98913.97
2023-04-26T06:13:48.816Z,98967.66
2023-04-26T06:16:15.965Z,99010.38
2023-04-26T06:18:46.061Z,98982.44
2023-04-26T06:21:12.507Z,99046.88
2023-04-26T06:23:38.912Z,99072.72
2023-04-26T06:26:05.456Z,99083.97
2023-04-26T06:28:32.280Z,99086.09
2023-04-26T06:30:58.680Z,99099.53
2023-04-26T06:33:25.189Z,99119.69
2023-04-26T06:35:52.478Z,99128.63
2023-04-26T06:38:19.059Z,99128.56
2023-04-26T06:40:55.610Z,99140.19
2023-04-26T06:43:22.146Z,99140.19
2023-04-26T06:45:48.594Z,99143.66
2023-04-26T06:48:15.292Z,99159.09
2023-04-26T06:50:41.774Z,99168.88
2023-04-26T06:53:08.441Z,99171.38
2023-04-26T06:55:35.285Z,99170.41
2023-04-26T06:58:01.724Z,99163.97
2023-04-26T07:00:28.341Z,99175.69
2023-04-26T07:02:54.762Z,99178.16
2023-04-26T07:05:21.833Z,99191.84
2023-04-26T07:07:50.092Z,99188.38
2023-04-26T07:10:16.843Z,99180.44
2023-04-26T07:12:43.308Z,99179.97
2023-04-26T07:15:10.134Z,99200.31
2023-04-26T07:17:36.694Z,99209.03
2023-04-26T07:20:03.705Z,99212.47
2023-04-26T07:22:30.118Z,99193.31
2023-04-26T07:24:56.500Z,99212.91
2023-04-26T07:27:23.279Z,99206.28
2023-04-26T07:29:53.362Z,99201.66
2023-04-26T07:32:19.828Z,99208.03
2023-04-26T07:34:46.369Z,99217.72
2023-04-26T07:37:12.804Z,99190.91
2023-04-26T07:39:39.229Z,99213.06
2023-04-26T07:42:05.710Z,99221.59
2023-04-26T07:44:32.197Z,99210.63
2023-04-26T07:46:59.426Z,99212.28
2023-04-26T07:49:25.981Z,99224.13
2023-04-26T07:51:52.555Z,99216.88
2023-04-26T07:54:19.028Z,99199.72
2023-04-26T07:56:45.494Z,99206.75
2023-04-26T07:59:15.446Z,99225.88
2023-04-26T08:01:45.619Z,99230.03
2023-04-26T08:04:12.351Z,99233.53
2023-04-26T08:06:39.397Z,99230.50
2023-04-26T08:09:05.787Z,99221.84
2023-04-26T08:11:32.853Z,99196.09
2023-04-26T08:13:59.348Z,99231.41
2023-04-26T08:16:25.870Z,99233.41
2023-04-26T08:18:52.543Z,99222.44
2023-04-26T08:21:18.928Z,99225.41
2023-04-26T08:23:48.266Z,99211.69
2023-04-26T08:26:17.733Z,99202.81
2023-04-26T08:28:44.153Z,99195.69
2023-04-26T08:31:10.625Z,99200.94
2023-04-26T08:33:37.025Z,99201.47
2023-04-26T08:36:03.501Z,99216.31
2023-04-26T08:38:29.922Z,99217.81
2023-04-26T08:40:58.746Z,99216.97
2023-04-26T08:43:27.489Z,99221.72
2023-04-26T08:45:54.921Z,99227.56
2023-04-26T08:48:21.971Z,99225.88
2023-04-26T08:50:51.079Z,99210.56
2023-04-26T08:53:22.219Z,99217.19
2023-04-26T08:55:50.417Z,99206.84
2023-04-26T08:58:21.116Z,99199.59
2023-04-26T09:00:48.144Z,99203.31
2023-04-26T09:03:14.840Z,99198.44
2023-04-26T09:05:44.478Z,99159.56
2023-04-26T09:08:17.135Z,99185.84
2023-04-26T09:10:43.842Z,99184.78
2023-04-26T09:13:11.988Z,99184.31
2023-04-26T09:15:39.280Z,99193.50
2023-04-26T09:18:21.862Z,99202.81
2023-04-26T09:21:08.011Z,99210.69
2023-04-26T09:23:35.261Z,99217.63
2023-04-26T09:26:24.133Z,99220.06
2023-04-26T09:28:51.725Z,99225.47
2023-04-26T09:31:38.962Z,99217.31
2023-04-26T09:34:05.923Z,99214.16
2023-04-26T09:36:32.457Z,99202.75
2023-04-26T09:39:02.619Z,99204.53
2023-04-26T09:41:49.486Z,99207.28
2023-04-26T09:44:23.775Z,99216.75
2023-04-26T09:47:00.812Z,99205.69
2023-04-26T09:49:27.866Z,99219.25
2023-04-26T09:52:01.752Z,99210.88
2023-04-26T09:54:45.075Z,99216.25
2023-04-26T09:57:12.203Z,99222.47
2023-04-26T09:59:48.529Z,99222.00
2023-04-26T10:02:15.441Z,99218.91
2023-04-26T10:04:47.095Z,99224.75
2023-04-26T10:07:14.282Z,99215.72
2023-04-26T10:09:41.942Z,99219.19
2023-04-26T10:12:12.152Z,99227.56
2023-04-26T10:14:38.831Z,99224.19
2023-04-26T10:17:07.552Z,99228.75
2023-04-26T10:19:34.934Z,99215.75
2023-04-26T10:22:06.153Z,99219.47
2023-04-26T10:24:33.921Z,99212.19
2023-04-26T10:27:03.088Z,99215.03
2023-04-26T10:29:48.110Z,99206.44
2023-04-26T10:32:18.124Z,99206.59
2023-04-26T10:34:44.710Z,99203.19
2023-04-26T10:37:14.854Z,99210.78
2023-04-26T10:39:42.489Z,99208.94
2023-04-26T10:42:24.234Z,99209.38
2023-04-26T10:44:55.361Z,99203.22
2023-04-26T10:47:27.768Z,99204.66
2023-04-26T10:50:04.289Z,99217.53
2023-04-26T10:52:35.228Z,99223.09
2023-04-26T10:55:02.766Z,99213.84
2023-04-26T10:57:47.770Z,99204.75
2023-04-26T11:00:17.964Z,99209.09
2023-04-26T11:02:46.527Z,99213.28
2023-04-26T11:05:31.786Z,99213.06
2023-04-26T11:08:10.011Z,99203.63
2023-04-26T11:10:39.730Z,99201.66
2023-04-26T11:13:06.602Z,99198.53
2023-04-26T11:15:33.518Z,99202.38
2023-04-26T11:18:03.763Z,99195.75
2023-04-26T11:20:44.386Z,99189.03
2023-04-26T11:23:10.921Z,99184.69
2023-04-26T11:25:39.003Z,99148.59
2023-04-26T11:28:05.832Z,99183.38
2023-04-26T11:30:33.185Z,99179.53
2023-04-26T11:33:00.245Z,99173.03
2023-04-26T11:35:27.869Z,99182.75
2023-04-26T11:37:54.352Z,99194.44
2023-04-26T11:40:20.862Z,99172.28
2023-04-26T11:42:47.897Z,99181.84
2023-04-26T11:45:17.441Z,99177.22
2023-04-26T11:47:48.257Z,99178.41
2023-04-26T11:50:15.550Z,99171.97
2023-04-26T11:52:42.792Z,99171.34
2023-04-26T11:55:10.472Z,99170.03
2023-04-26T11:57:37.020Z,99164.16
2023-04-26T12:00:14.626Z,99173.53
2023-04-26T12:02:48.957Z,99163.06
2023-04-26T12:05:24.816Z,99169.22
2023-04-26T12:07:56.774Z,99170.97
2023-04-26T12:10:27.276Z,99172.81
2023-04-26T12:12:56.227Z,99179.28
2023-04-26T12:15:23.653Z,99186.75
2023-04-26T12:17:54.868Z,99178.84
2023-04-26T12:20:32.116Z,99191.16
2023-04-26T12:22:59.454Z,99177.34
2023-04-26T12:25:26.012Z,99175.66
2023-04-26T12:27:52.706Z,99188.50
2023-04-26T12:30:19.154Z,99177.31
2023-04-26T12:32:45.641Z,99184.03
2023-04-26T12:35:12.115Z,99187.78
2023-04-26T12:37:38.686Z,99179.81
2023-04-26T12:40:07.046Z,99174.84
2023-04-26T12:42:33.733Z,99183.53
2023-04-26T12:45:06.130Z,99180.03
2023-04-26T12:47:32.870Z,99172.19
2023-04-26T12:50:01.292Z,99173.28
2023-04-26T12:52:28.189Z,99170.63
2023-04-26T12:54:54.737Z,99184.31
2023-04-26T12:57:24.362Z,99177.38
2023-04-26T12:59:51.028Z,99174.06
2023-04-26T13:02:17.655Z,99178.81
2023-04-26T13:04:44.356Z,99180.03
2023-04-26T13:07:11.201Z,99182.09
2023-04-26T13:09:37.840Z,99177.97
2023-04-26T13:12:04.865Z,99173.59
2023-04-26T13:14:31.278Z,99176.03
2023-04-26T13:16:57.706Z,99170.53
2023-04-26T13:19:24.106Z,99180.50
2023-04-26T13:21:52.466Z,99184.28
2023-04-26T13:24:18.958Z,99177.59
2023-04-26T13:26:45.325Z,99180.16
2023-04-26T13:29:11.717Z,99173.28
2023-04-26T13:31:39.953Z,99170.38
2023-04-26T13:34:07.276Z,99177.41
2023-04-26T13:36:34.111Z,99171.47
2023-04-26T13:39:01.363Z,99172.56
2023-04-26T13:41:29.308Z,99175.97
2023-04-26T13:43:55.813Z,99178.47
2023-04-26T13:46:22.559Z,99186.56
2023-04-26T13:48:49.034Z,99177.59
2023-04-26T13:51:15.518Z,99173.84
2023-04-26T13:53:41.938Z,99182.47
2023-04-26T13:56:09.604Z,99175.25
2023-04-26T13:58:36.725Z,99176.38
2023-04-26T14:01:03.390Z,99174.44
2023-04-26T14:03:30.263Z,99174.44
2023-04-26T14:05:56.792Z,99174.88
2023-04-26T14:08:23.199Z,99171.72
2023-04-26T14:10:49.606Z,99172.53
2023-04-26T14:13:16.181Z,99169.34
2023-04-26T14:15:42.838Z,99181.53
2023-04-26T14:18:10.518Z,99174.28
2023-04-26T14:20:36.962Z,99185.28
2023-04-26T14:23:03.439Z,99184.66
2023-04-26T14:25:30.040Z,99185.31
2023-04-26T14:27:56.451Z,99183.88
2023-04-26T14:30:24.482Z,99181.63
2023-04-26T14:32:50.915Z,99179.44
2023-04-26T14:35:17.436Z,99180.50
2023-04-26T14:37:43.886Z,99187.38
2023-04-26T14:40:11.171Z,99191.00
2023-04-26T14:42:38.358Z,99147.22
2023-04-26T14:45:04.972Z,99184.28
2023-04-26T14:47:31.452Z,99183.31
2023-04-26T14:49:58.002Z,99181.50
2023-04-26T14:52:27.098Z,99184.84
2023-04-26T14:54:53.786Z,99180.72
2023-04-26T14:57:20.268Z,99182.38
2023-04-26T14:59:46.949Z,99180.44
2023-04-26T15:02:13.523Z,99181.00
2023-04-26T15:04:40.269Z,99189.09
2023-04-26T15:07:07.688Z,99191.16
2023-04-26T15:09:36.553Z,99182.34
2023-04-26T15:12:04.726Z,99177.22
2023-04-26T15:14:31.613Z,99180.72
2023-04-26T15:16:58.333Z,99186.44
2023-04-26T15:19:24.798Z,99180.59
2023-04-26T15:21:51.172Z,99176.84
2023-04-26T15:24:20.242Z,99173.19
2023-04-26T15:26:46.733Z,99169.56
2023-04-26T15:29:13.596Z,99168.81
2023-04-26T15:31:40.293Z,99163.94
2023-04-26T15:34:06.917Z,99157.13
2023-04-26T15:36:33.311Z,99155.28
2023-04-26T15:38:59.835Z,99162.72
2023-04-26T15:41:26.367Z,99165.69
2023-04-26T15:43:56.089Z,99163.97
2023-04-26T15:46:23.137Z,99169.03
2023-04-26T15:48:49.725Z,99166.25
2023-04-26T15:51:16.403Z,99165.66
2023-04-26T15:53:44.091Z,99156.13
2023-04-26T15:56:14.246Z,99161.16
2023-04-26T15:58:43.712Z,99165.81
2023-04-26T16:01:10.148Z,99164.81
2023-04-26T16:03:36.944Z,99165.91
2023-04-26T16:06:04.264Z,99160.88
2023-04-26T16:08:39.815Z,99168.00
2023-04-26T16:11:06.781Z,99169.22
2023-04-26T16:13:33.884Z,99161.19
2023-04-26T16:16:00.712Z,99168.38
2023-04-26T16:18:30.056Z,99158.09
2023-04-26T16:21:03.692Z,99168.75
2023-04-26T16:23:30.259Z,99161.34
2023-04-26T16:25:56.752Z,99161.75
2023-04-26T16:28:23.299Z,99162.72
2023-04-26T16:30:49.864Z,99161.50
2023-04-26T16:33:16.338Z,99167.63
2023-04-26T16:35:42.728Z,99162.59
2023-04-26T16:38:09.150Z,99165.38
2023-04-26T16:40:35.876Z,99165.97
2023-04-26T16:43:02.413Z,99155.09
2023-04-26T16:45:29.124Z,99163.72
2023-04-26T16:47:55.595Z,99172.63
2023-04-26T16:50:22.224Z,99165.91
2023-04-26T16:52:48.875Z,99174.59
2023-04-26T16:55:15.662Z,99171.78
2023-04-26T16:57:44.143Z,99177.03
2023-04-26T17:00:11.809Z,99168.13
2023-04-26T17:02:40.457Z,99171.31
2023-04-26T17:05:07.531Z,99170.91
2023-04-26T17:07:34.192Z,99179.81
2023-04-26T17:10:00.781Z,99179.78
2023-04-26T17:12:27.269Z,99188.16
2023-04-26T17:14:53.814Z,99182.00
2023-04-26T17:17:20.210Z,99181.19
2023-04-26T17:19:47.084Z,99181.47
2023-04-26T17:22:13.979Z,99186.69
2023-04-26T17:24:42.226Z,99182.81
2023-04-26T17:27:08.785Z,99178.31
2023-04-26T17:29:35.313Z,99183.41
2023-04-26T17:32:01.862Z,99181.03
2023-04-26T17:34:28.467Z,99188.28
2023-04-26T17:36:54.938Z,99189.28
2023-04-26T17:39:21.484Z,99198.31
2023-04-26T17:41:47.977Z,99194.47
2023-04-26T17:44:14.661Z,99197.63
2023-04-26T17:46:41.683Z,99193.44
2023-04-26T17:49:09.674Z,99197.09
2023-04-26T17:51:36.295Z,99192.59
2023-04-26T17:54:02.810Z,99195.59
2023-04-26T17:56:29.321Z,99196.09
2023-04-26T17:58:55.967Z,99204.63
2023-04-26T18:01:23.093Z,99203.78
2023-04-26T18:03:50.019Z,99210.16
2023-04-26T18:06:19.362Z,99206.88
2023-04-26T18:08:45.890Z,99212.84
2023-04-26T18:11:12.406Z,99211.56
2023-04-26T18:13:38.895Z,99211.56
2023-04-26T18:16:05.479Z,99206.28
2023-04-26T18:18:31.942Z,99216.44
2023-04-26T18:20:58.361Z,99211.41
2023-04-26T18:23:24.783Z,99216.03
2023-04-26T18:25:51.473Z,99220.13
2023-04-26T18:28:19.129Z,99226.09
2023-04-26T18:30:45.657Z,99229.94
2023-04-26T18:33:12.190Z,99227.59
2023-04-26T18:35:38.665Z,99222.09
2023-04-26T18:38:05.160Z,99223.03
2023-04-26T18:40:31.618Z,99226.16
2023-04-26T18:43:00.044Z,99230.53
2023-04-26T18:45:26.524Z,99231.69
2023-04-26T18:47:55.257Z,99236.56
2023-04-26T18:50:22.249Z,99231.53
2023-04-26T18:52:48.729Z,99237.06
2023-04-26T18:55:15.325Z,99227.97
2023-04-26T18:57:42.108Z,99228.09
2023-04-26T19:00:08.818Z,99229.78
2023-04-26T19:02:38.246Z,99231.34
2023-04-26T19:05:05.881Z,99237.78
2023-04-26T19:07:32.415Z,99232.16
2023-04-26T19:10:01.065Z,99240.06
2023-04-26T19:12:27.780Z,99235.84
2023-04-26T19:14:55.208Z,99245.41
2023-04-26T19:17:22.304Z,99256.34
2023-04-26T19:19:55.494Z,99246.69
2023-04-26T19:22:21.979Z,99253.47
2023-04-26T19:24:48.892Z,99248.50
2023-04-26T19:27:15.746Z,99259.50
2023-04-26T19:29:42.330Z,99263.63
2023-04-26T19:32:08.852Z,99263.69
2023-04-26T19:34:36.540Z,99261.91
2023-04-26T19:37:04.214Z,99256.78
2023-04-26T19:39:30.672Z,99260.72
2023-04-26T19:41:57.207Z,99254.53
2023-04-26T19:44:23.787Z,99256.75
2023-04-26T19:46:50.629Z,99259.06
2023-04-26T19:49:17.095Z,99262.66
2023-04-26T19:51:43.982Z,99256.44
2023-04-26T19:54:10.819Z,99257.59
2023-04-26T19:56:37.261Z,99256.56
2023-04-26T19:59:04.244Z,99252.88
2023-04-26T20:01:32.588Z,99254.22
2023-04-26T20:03:59.206Z,99257.19
2023-04-26T20:06:26.236Z,99262.75
2023-04-26T20:08:54.822Z,99252.25
2023-04-26T20:11:22.608Z,99265.97
2023-04-26T20:13:49.134Z,99268.06
2023-04-26T20:16:16.607Z,99266.47
2023-04-26T20:18:43.705Z,99259.97
2023-04-26T20:21:10.329Z,99256.16
2023-04-26T20:23:37.430Z,99259.19
2023-04-26T20:26:03.977Z,99246.38
2023-04-26T20:28:30.580Z,99248.81
2023-04-26T20:30:57.086Z,99253.00
2023-04-26T20:33:23.695Z,99247.41
2023-04-26T20:35:50.371Z,99254.66
2023-04-26T20:38:16.863Z,99258.97
2023-04-26T20:40:43.315Z,99245.94
2023-04-26T20:43:10.324Z,99248.47
2023-04-26T20:45:37.252Z,99245.34
2023-04-26T20:48:04.020Z,99242.69
2023-04-26T20:50:30.495Z,99242.41
2023-04-26T20:52:57.433Z,99243.44
2023-04-26T20:55:24.886Z,99242.50
2023-04-26T20:57:51.498Z,99240.94
2023-04-26T21:00:18.204Z,99240.47
2023-04-26T21:02:44.931Z,99241.84
2023-04-26T21:05:11.437Z,99246.13
2023-04-26T21:07:37.847Z,99246.13
2023-04-26T21:10:04.751Z,99249.25
2023-04-26T21:12:31.167Z,99252.66
2023-04-26T21:14:57.518Z,99250.56
2023-04-26T21:17:24.059Z,99255.38
2023-04-26T21:19:50.998Z,99262.63
2023-04-26T21:22:22.242Z,99257.38
2023-04-26T21:24:50.984Z,99249.59
2023-04-26T21:27:17.487Z,99251.53
2023-04-26T21:29:43.847Z,99251.50
2023-04-26T21:32:10.344Z,99243.13
2023-04-26T21:34:37.382Z,99235.69
2023-04-26T21:37:03.872Z,99237.56
2023-04-26T21:39:30.297Z,99233.47
2023-04-26T21:41:56.752Z,99242.66
2023-04-26T21:44:23.211Z,99242.09
2023-04-26T21:46:51.218Z,99231.16
2023-04-26T21:49:17.754Z,99238.72
2023-04-26T21:51:44.400Z,99233.66
2023-04-26T21:54:10.999Z,99228.91
2023-04-26T21:56:37.566Z,99233.41
2023-04-26T21:59:04.913Z,99235.69
2023-04-26T22:01:31.682Z,99239.72
2023-04-26T22:03:58.518Z,99238.00
2023-04-26T22:06:25.643Z,99224.16
2023-04-26T22:08:52.093Z,99217.59
2023-04-26T22:11:18.651Z,99222.47
2023-04-26T22:13:45.199Z,99213.25
2023-04-26T22:16:11.883Z,99215.34
2023-04-26T22:18:38.452Z,99208.84
2023-04-26T22:21:05.132Z,99206.41
2023-04-26T22:23:31.616Z,99213.19
2023-04-26T22:25:59.799Z,99206.44
2023-04-26T22:28:26.805Z,99213.66
2023-04-26T22:30:53.282Z,99203.06
2023-04-26T22:33:19.770Z,99200.75
2023-04-26T22:35:46.188Z,99197.84
2023-04-26T22:38:12.643Z,99184.56
2023-04-26T22:40:39.052Z,99184.50
2023-04-26T22:43:06.200Z,99178.09
2023-04-26T22:45:33.597Z,99174.63
2023-04-26T22:48:00.256Z,99160.81
2023-04-26T22:50:26.751Z,99167.91
2023-04-26T22:52:53.242Z,99169.56
2023-04-26T22:55:19.797Z,99166.34
2023-04-26T22:57:46.638Z,99172.31
2023-04-26T23:00:14.688Z,99167.47
2023-04-26T23:02:41.378Z,99155.41
2023-04-26T23:05:10.824Z,99155.34
2023-04-26T23:07:41.826Z,99150.88
2023-04-26T23:10:08.493Z,99131.38
2023-04-26T23:12:36.875Z,99126.75
2023-04-26T23:15:05.353Z,99117.97
2023-04-26T23:17:34.338Z,99112.53
2023-04-26T23:20:01.172Z,99109.72
2023-04-26T23:22:28.254Z,99114.59
2023-04-26T23:24:54.765Z,99101.75
2023-04-26T23:27:21.240Z,99094.22
2023-04-26T23:29:49.709Z,99084.91
2023-04-26T23:32:16.375Z,99072.63
2023-04-26T23:34:45.540Z,99072.19
2023-04-26T23:37:12.044Z,99065.06
2023-04-26T23:39:38.556Z,99066.31
2023-04-26T23:42:05.132Z,99064.03
2023-04-26T23:44:31.618Z,99073.47
2023-04-26T23:46:58.113Z,99064.06
2023-04-26T23:49:24.817Z,99067.84
2023-04-26T23:51:51.517Z,99069.53
2023-04-26T23:54:18.245Z,99062.25
2023-04-26T23:56:44.716Z,99066.84
2023-04-26T23:59:11.735Z,99068.88
